Flight Track Log - Related Links

Times and Time Zones

All times are in EDT time to prevent confusion due to time zone crossing. See the AAL1459 flight status page for this flight to view local times or setup timezone preferences in your user account.

Time Position Orientation Groundspeed Altitude Reporting Facility
EDT Latitude Longitude Course Direction KTS MPH feet Rate Location/Type
Thu 03:18:13 PM 42.3667 -70.9667 270° West 155 178 1,200  Level KA90
Thu 03:19:07 PM 42.3667 -70.9167 90° East 192 221 2,500 1,850 Climbing KA90
Thu 03:20:00 PM 42.3340 -70.7280 166° South  Level FlightAware Approximate
Thu 03:20:13 PM 42.3833 -70.8167 77° East 246 283 4,900  Level KA90
Thu 03:21:00 PM 42.2464 -70.7971 228° Southwest  Level FlightAware Approximate
Thu 03:21:53 PM 42.3167 -70.7244 134° Southeast 280 322 8,800  Level Boston Center
Thu 03:22:00 PM 42.1855 -70.9284 240° Southwest  Level FlightAware Approximate
Thu 03:22:54 PM 42.2422 -70.7714 205° Southwest 257 296 10,700  Level Boston Center
Thu 03:23:00 PM 42.1833 -71.0830 270° West  Level FlightAware Approximate
Thu 03:23:52 PM 42.2025 -70.9069 248° West 263 303 13,100  Level Boston Center
Thu 03:24:52 PM 42.2000 -71.0306 268° West 301 346 15,700 2,579 Climbing Boston Center
Thu 03:25:53 PM 42.1956 -71.1847 268° West 349 402 18,300 2,182 Climbing Boston Center
Thu 03:26:53 PM 42.1947 -71.3192 270° West 390 449 20,100 2,033 Climbing Boston Center
Thu 03:27:54 PM 42.1942 -71.4678 270° West 401 461 22,400 2,370 Climbing Boston Center
Thu 03:28:52 PM 42.1869 -71.6331 267° West 406 467 24,800 2,085 Climbing Boston Center
Thu 03:29:52 PM 42.1839 -71.7900 269° West 412 474 26,500 1,574 Climbing Boston Center
Thu 03:30:54 PM 42.1783 -71.9525 267° West 422 486 28,000 1,462 Climbing Boston Center
Thu 03:31:51 PM 42.1769 -72.1181 269° West 432 497 29,400 1,424 Climbing Boston Center
Thu 03:32:52 PM 42.1503 -72.2469 254° West 450 518 30,800 1,537 Climbing Boston Center
Thu 03:33:52 PM 42.0794 -72.4064 239° Southwest 444 511 32,500 1,537 Climbing Boston Center
Thu 03:34:53 PM 42.0128 -72.5519 238° Southwest 449 517 33,900 1,377 Climbing Boston Center
Thu 03:35:54 PM 41.9519 -72.6942 240° Southwest 454 522 35,300 1,361 Climbing Boston Center
Thu 03:36:52 PM 41.8850 -72.8333 237° Southwest 449 517 36,600 1,119 Climbing Boston Center
Thu 03:37:52 PM 41.8219 -72.9694 238° Southwest 449 517 37,500 694 Climbing Boston Center
Thu 03:38:53 PM 41.7522 -73.1161 238° Southwest 457 526 38,000 248 Climbing Boston Center
Thu 03:39:53 PM 41.6867 -73.2572 238° Southwest 457 526 38,000  Level Boston Center
Thu 03:41:45 PM 41.5358 -73.5122 232° Southwest 439 505 38,000  Level New York Center
Thu 03:42:45 PM 41.4536 -73.6389 229° Southwest 447 514 38,000  Level New York Center
Thu 03:43:45 PM 41.3736 -73.7625 229° Southwest 447 514 38,000  Level New York Center
Thu 03:44:45 PM 41.2914 -73.8831 228° Southwest 447 514 38,000 -50 Level New York Center
Thu 03:45:45 PM 41.2111 -74.0033 228° Southwest 447 514 37,900  Descending New York Center
Thu 03:46:45 PM 41.1306 -74.1292 230° Southwest 458 527 38,000 50 Climbing New York Center
Thu 03:47:45 PM 41.0622 -74.2606 235° Southwest 448 516 38,000  Level New York Center
Thu 03:48:45 PM 40.9975 -74.4000 238° Southwest 442 509 38,000  Level New York Center
Thu 03:49:45 PM 40.9350 -74.5369 239° Southwest 442 509 38,000 -50 Level New York Center
Thu 03:50:45 PM 40.8700 -74.6731 238° Southwest 447 514 37,900  Descending New York Center
Thu 03:51:45 PM 40.8050 -74.8119 238° Southwest 442 509 38,000 50 Climbing New York Center
Thu 03:52:45 PM 40.7419 -74.9481 239° Southwest 442 509 38,000  Level New York Center
Thu 03:53:45 PM 40.6806 -75.0864 240° Southwest 442 509 38,000  Level New York Center
Thu 03:54:45 PM 40.6169 -75.2275 239° Southwest 442 509 38,000  Level New York Center
Thu 03:55:45 PM 40.5536 -75.3597 238° Southwest 448 516 38,000  Level New York Center
Thu 03:56:45 PM 40.4917 -75.5031 240° Southwest 448 516 38,000 -50 Level New York Center
Thu 03:57:45 PM 40.4278 -75.6406 239° Southwest 448 516 37,900  Descending New York Center
Thu 03:58:45 PM 40.3703 -75.7672 239° Southwest 448 516 38,000 50 Climbing New York Center
Thu 03:59:45 PM 40.2994 -75.9144 238° Southwest 448 516 38,000  Level New York Center
Thu 04:00:45 PM 40.2397 -76.0406 238° Southwest 448 516 38,000  Level New York Center
Thu 04:01:45 PM 40.1772 -76.1744 239° Southwest 448 516 38,000  Level New York Center
Thu 04:02:45 PM 40.1058 -76.3236 238° Southwest 443 510 38,000  Level New York Center
Thu 04:03:45 PM 40.0450 -76.4597 240° Southwest 443 510 38,000  Level New York Center
Thu 04:05:58 PM 39.9186 -76.7386 239° Southwest 450 518 38,000  Level Washington Center
Thu 04:06:59 PM 39.8442 -76.8858 237° Southwest 450 518 38,000  Level Washington Center
Thu 04:07:59 PM 39.7803 -77.0169 238° Southwest 445 512 38,000  Level Washington Center
Thu 04:08:57 PM 39.7161 -77.1533 239° Southwest 445 512 38,000  Level Washington Center
Thu 04:09:57 PM 39.6539 -77.2842 238° Southwest 445 512 38,000  Level Washington Center
Thu 04:10:58 PM 39.5914 -77.4172 239° Southwest 445 512 38,000  Level Washington Center
Thu 04:11:59 PM 39.5311 -77.5503 240° Southwest 445 512 38,000  Level Washington Center
Thu 04:12:57 PM 39.4683 -77.6803 238° Southwest 439 505 38,000  Level Washington Center
Thu 04:13:58 PM 39.4058 -77.8103 238° Southwest 439 505 38,000  Level Washington Center
Thu 04:14:59 PM 39.3469 -77.9425 240° Southwest 439 505 38,000  Level Washington Center
Thu 04:15:59 PM 39.3006 -78.0672 244° Southwest 434 499 38,000  Level Washington Center
Thu 04:16:57 PM 39.2458 -78.2019 242° Southwest 434 499 38,000  Level Washington Center
Thu 04:17:58 PM 39.1928 -78.3367 243° Southwest 429 494 38,000  Level Washington Center
Thu 04:18:59 PM 39.1375 -78.4736 243° Southwest 429 494 38,000  Level Washington Center
Thu 04:19:57 PM 39.0819 -78.6053 242° Southwest 429 494 38,000  Level Washington Center
Thu 04:20:58 PM 39.0286 -78.7419 243° Southwest 429 494 38,000  Level Washington Center
Thu 04:21:58 PM 38.9747 -78.8786 243° Southwest 429 494 38,000  Level Washington Center
Thu 04:22:58 PM 38.9169 -79.0094 240° Southwest 429 494 38,000  Level Washington Center
Thu 04:23:59 PM 38.8608 -79.1453 242° Southwest 429 494 38,000  Level Washington Center
Thu 04:24:57 PM 38.8253 -79.2875 252° West 429 494 38,000  Level Washington Center
Thu 04:25:58 PM 38.8000 -79.4303 257° West 423 487 38,000  Level Washington Center
Thu 04:26:58 PM 38.7739 -79.5939 258° West 423 487 38,000  Level Washington Center
Thu 04:27:59 PM 38.7483 -79.7283 256° West 429 494 38,000  Level Washington Center
Thu 04:29:06 PM 38.7153 -79.8881 255° West 425 489 38,000  Level Indianapolis Center
Thu 04:30:08 PM 38.6875 -80.0372 257° West 430 495 38,000  Level Indianapolis Center
Thu 04:31:11 PM 38.6597 -80.1847 256° West 428 493 38,000  Level Indianapolis Center
Thu 04:32:13 PM 38.6272 -80.3617 257° West 425 489 38,000  Level Indianapolis Center
Thu 04:33:15 PM 38.5881 -80.5081 251° West 432 497 38,000  Level Indianapolis Center
Thu 04:34:17 PM 38.5494 -80.6528 251° West 430 495 38,000  Level Indianapolis Center
Thu 04:35:19 PM 38.5083 -80.7994 250° West 435 501 38,000  Level Indianapolis Center
Thu 04:36:21 PM 38.4681 -80.9458 251° West 436 502 38,000  Level Indianapolis Center
Thu 04:37:23 PM 38.4275 -81.0931 251° West 437 503 38,000  Level Indianapolis Center
Thu 04:38:25 PM 38.3861 -81.2422 251° West 440 506 38,000  Level Indianapolis Center
Thu 04:39:27 PM 38.3361 -81.4222 251° West 445 512 38,000  Level Indianapolis Center
Thu 04:40:29 PM 38.2933 -81.5725 250° West 447 514 38,000  Level Indianapolis Center
Thu 04:41:31 PM 38.2517 -81.7225 251° West 447 514 38,000  Level Indianapolis Center
Thu 04:42:33 PM 38.2094 -81.8706 250° West 445 512 38,000  Level Indianapolis Center
Thu 04:43:35 PM 38.1658 -82.0167 249° West 442 509 38,000  Level Indianapolis Center
Thu 04:44:37 PM 38.1247 -82.1636 250° West 442 509 38,000  Level Indianapolis Center
Thu 04:45:40 PM 38.0767 -82.3344 250° West 438 504 38,000  Level Indianapolis Center
Thu 04:46:42 PM 38.0339 -82.4797 250° West 439 505 38,000  Level Indianapolis Center
Thu 04:47:44 PM 37.9917 -82.6239 250° West 437 503 38,000  Level Indianapolis Center
Thu 04:48:46 PM 37.9492 -82.7672 249° West 435 501 38,000  Level Indianapolis Center
Thu 04:49:48 PM 37.9075 -82.9122 250° West 437 503 38,000  Level Indianapolis Center
Thu 04:50:50 PM 37.8569 -83.0853 250° West 447 514 38,000  Level Indianapolis Center
Thu 04:51:52 PM 37.8131 -83.2311 249° West 445 512 38,000  Level Indianapolis Center
Thu 04:52:54 PM 37.7689 -83.3767 249° West 444 511 38,000  Level Indianapolis Center
Thu 04:53:56 PM 37.7250 -83.5206 249° West 441 507 38,000  Level Indianapolis Center
Thu 04:54:58 PM 37.6806 -83.6650 249° West 441 507 38,000  Level Indianapolis Center
Thu 04:56:00 PM 37.6297 -83.8342 249° West 443 510 38,000  Level Indianapolis Center
Thu 04:57:02 PM 37.5847 -83.9775 248° West 441 507 38,000  Level Indianapolis Center
Thu 04:58:04 PM 37.5408 -84.1242 249° West 445 512 38,000  Level Indianapolis Center
Thu 04:59:06 PM 37.4953 -84.2686 248° West 445 512 38,000  Level Indianapolis Center
Thu 05:00:08 PM 37.4492 -84.4144 248° West 447 514 38,000  Level Indianapolis Center
Thu 05:01:11 PM 37.3950 -84.5842 248° West 449 517 38,000  Level Indianapolis Center
Thu 05:02:13 PM 37.3506 -84.7297 249° West 447 514 38,000  Level Indianapolis Center
Thu 05:03:15 PM 37.3053 -84.8717 248° West 440 506 38,000  Level Indianapolis Center
Thu 05:04:17 PM 37.2606 -85.0133 248° West 437 503 38,000  Level Indianapolis Center
Thu 05:05:19 PM 37.2153 -85.1547 248° West 437 503 38,000  Level Indianapolis Center
Thu 05:06:21 PM 37.1614 -85.3181 248° West 435 501 38,000  Level Indianapolis Center
Thu 05:07:23 PM 37.1158 -85.4581 248° West 433 498 38,000  Level Indianapolis Center
Thu 05:08:25 PM 37.0731 -85.5939 248° West 433 498 38,000  Level Indianapolis Center
Thu 05:09:27 PM 37.0244 -85.7308 246° West 430 495 38,000  Level Indianapolis Center
Thu 05:10:29 PM 36.9653 -85.8617 241° Southwest 430 495 38,000  Level Indianapolis Center
Thu 05:11:31 PM 36.8703 -85.9628 220° Southwest 452 520 38,000  Level Indianapolis Center
Thu 05:12:33 PM 36.7433 -86.0594 211° Southwest 453 521 38,000  Level Indianapolis Center
Thu 05:13:35 PM 36.6428 -86.1547 217° Southwest 450 518 38,000  Level Indianapolis Center
Thu 05:14:28 PM 36.5550 -86.2419 219° Southwest 455 524 38,000  Level Memphis Center
Thu 05:15:28 PM 36.4969 -86.3714 241° Southwest 438 504 38,000  Level Memphis Center
Thu 05:16:28 PM 36.4578 -86.5178 252° West 439 505 38,000  Level Memphis Center
Thu 05:17:28 PM 36.4203 -86.6561 251° West 432 497 38,000  Level Memphis Center
Thu 05:18:28 PM 36.3783 -86.7947 249° West 442 509 38,000  Level Memphis Center
Thu 05:19:28 PM 36.3344 -86.9358 249° West 453 521 38,000  Level Memphis Center
Thu 05:20:28 PM 36.2969 -87.0892 253° West 471 542 38,000  Level Memphis Center
Thu 05:21:28 PM 36.2528 -87.2378 250° West 448 516 38,000  Level Memphis Center
Thu 05:22:28 PM 36.2103 -87.3783 249° West 436 502 38,000  Level Memphis Center
Thu 05:23:28 PM 36.1697 -87.5186 250° West 431 496 38,000  Level Memphis Center
Thu 05:24:28 PM 36.1292 -87.6589 250° West 431 496 38,000  Level Memphis Center
Thu 05:25:28 PM 36.0864 -87.7989 249° West 431 496 38,000  Level Memphis Center
Thu 05:26:29 PM 36.0472 -87.9361 251° West 431 496 38,000  Level Memphis Center
Thu 05:27:28 PM 36.0061 -88.0758 250° West 433 498 38,000  Level Memphis Center
Thu 05:28:28 PM 35.9686 -88.1925 248° West 420 483 38,000  Level Memphis Center
Thu 05:29:28 PM 35.9231 -88.3344 248° West 420 483 38,000  Level Memphis Center
Thu 05:30:28 PM 35.8814 -88.4714 249° West 431 496 38,000  Level Memphis Center
Thu 05:31:28 PM 35.8375 -88.6081 248° West 431 496 38,000  Level Memphis Center
Thu 05:32:28 PM 35.7958 -88.7497 250° West 431 496 38,000  Level Memphis Center
Thu 05:33:28 PM 35.7517 -88.8886 249° West 431 496 38,000  Level Memphis Center
Thu 05:34:28 PM 35.7094 -89.0275 250° West 431 496 38,000  Level Memphis Center
Thu 05:35:28 PM 35.6672 -89.1817 251° West 431 496 38,000  Level Memphis Center
Thu 05:36:28 PM 35.6225 -89.3175 248° West 431 496 38,000  Level Memphis Center
Thu 05:37:28 PM 35.5797 -89.4586 250° West 437 503 38,000  Level Memphis Center
Thu 05:38:28 PM 35.5389 -89.5942 250° West 432 497 38,000  Level Memphis Center
Thu 05:39:28 PM 35.4939 -89.7347 249° West 437 503 38,000  Level Memphis Center
Thu 05:40:28 PM 35.4508 -89.8728 249° West 437 503 38,000  Level Memphis Center
Thu 05:41:28 PM 35.4053 -90.0081 248° West 430 495 38,000  Level Memphis Center
Thu 05:42:28 PM 35.3617 -90.1508 250° West 436 502 38,000  Level Memphis Center
Thu 05:43:28 PM 35.3161 -90.2883 248° West 441 507 38,000  Level Memphis Center
Thu 05:44:28 PM 35.2764 -90.4131 249° West 436 502 38,000  Level Memphis Center
Thu 05:45:28 PM 35.2306 -90.5478 247° West 436 502 38,000  Level Memphis Center
Thu 05:46:28 PM 35.1864 -90.6847 248° West 436 502 38,000  Level Memphis Center
Thu 05:47:28 PM 35.1422 -90.8192 248° West 430 495 38,000  Level Memphis Center
Thu 05:48:28 PM 35.0956 -90.9536 247° West 436 502 38,000  Level Memphis Center
Thu 05:49:28 PM 35.0511 -91.0875 248° West 430 495 38,000  Level Memphis Center
Thu 05:50:28 PM 35.0064 -91.2192 248° West 430 495 38,000  Level Memphis Center
Thu 05:51:28 PM 34.9639 -91.3531 249° West 430 495 38,000  Level Memphis Center
Thu 05:52:28 PM 34.9144 -91.4967 247° West 425 489 38,000  Level Memphis Center
Thu 05:53:28 PM 34.8778 -91.6381 252° West 425 489 38,000  Level Memphis Center
Thu 05:54:28 PM 34.8367 -91.7714 249° West 433 498 38,000  Level Memphis Center
Thu 05:55:28 PM 34.7975 -91.9072 251° West 433 498 38,000  Level Memphis Center
Thu 05:56:28 PM 34.7581 -92.0431 251° West 433 498 38,000  Level Memphis Center
Thu 05:57:28 PM 34.7167 -92.1814 250° West 428 493 38,000  Level Memphis Center
Thu 05:58:28 PM 34.6769 -92.3219 251° West 434 499 38,000  Level Memphis Center
Thu 05:59:28 PM 34.6372 -92.4572 250° West 434 499 38,000  Level Memphis Center
Thu 06:00:28 PM 34.5950 -92.5975 250° West 440 506 38,000  Level Memphis Center
Thu 06:01:28 PM 34.5572 -92.7303 251° West 446 513 38,000  Level Memphis Center
Thu 06:02:28 PM 34.5192 -92.8603 250° West 441 507 38,000  Level Memphis Center
Thu 06:03:28 PM 34.4767 -92.9950 249° West 441 507 38,000  Level Memphis Center
Thu 06:04:28 PM 34.4339 -93.1372 250° West 441 507 38,000  Level Memphis Center
Thu 06:06:09 PM 34.3728 -93.3525 251° West 428 493 38,000  Level Fort Worth Center
Thu 06:07:10 PM 34.3311 -93.4928 250° West 438 504 38,000  Level Fort Worth Center
Thu 06:08:09 PM 34.2861 -93.6558 252° West 438 504 38,000  Level Fort Worth Center
Thu 06:09:09 PM 34.2486 -93.7956 252° West 438 504 38,000  Level Fort Worth Center
Thu 06:10:10 PM 34.2106 -93.9278 251° West 432 497 38,000  Level Fort Worth Center
Thu 06:11:09 PM 34.1706 -94.0650 251° West 432 497 38,000  Level Fort Worth Center
Thu 06:12:09 PM 34.1322 -94.2019 251° West 432 497 38,000 -298 Level Fort Worth Center
Thu 06:13:10 PM 34.1214 -94.3453 265° West 423 487 37,400 -750 Descending Fort Worth Center
Thu 06:14:09 PM 34.1536 -94.4797 286° West 416 479 36,500 -958 Descending Fort Worth Center
Thu 06:15:09 PM 34.1781 -94.6294 281° West 428 493 35,500 -942 Descending Fort Worth Center
Thu 06:16:10 PM 34.1997 -94.7694 281° West 433 498 34,600 -950 Descending Fort Worth Center
Thu 06:17:09 PM 34.1525 -94.9014 247° West 419 482 33,600 -1,765 Descending Fort Worth Center
Thu 06:18:09 PM 34.0944 -95.0283 241° Southwest 425 489 31,100 -1,934 Descending Fort Worth Center
Thu 06:19:10 PM 34.0342 -95.1603 241° Southwest 437 503 29,700 -1,350 Descending Fort Worth Center
Thu 06:20:09 PM 33.9739 -95.2897 241° Southwest 449 517 28,400 -1,513 Descending Fort Worth Center
Thu 06:21:09 PM 33.9156 -95.4161 241° Southwest 449 517 26,700 -1,636 Descending Fort Worth Center
Thu 06:22:10 PM 33.8589 -95.5375 241° Southwest 434 499 25,100 -1,650 Descending Fort Worth Center
Thu 06:23:09 PM 33.8022 -95.6589 241° Southwest 428 493 23,400 -1,714 Descending Fort Worth Center
Thu 06:24:09 PM 33.7389 -95.7700 236° Southwest 415 478 21,700 -1,537 Descending Fort Worth Center
Thu 06:25:10 PM 33.6922 -95.8581 238° Southwest 409 471 20,300 -2,300 Descending Fort Worth Center
Thu 06:26:09 PM 33.6186 -95.9967 238° Southwest 404 465 17,100 -2,672 Descending Fort Worth Center
Thu 06:27:09 PM 33.5614 -96.1047 238° Southwest 404 465 15,000 -2,380 Descending Fort Worth Center
Thu 06:28:10 PM 33.4997 -96.2153 236° Southwest 398 458 12,300 -2,000 Descending Fort Worth Center
Thu 06:29:09 PM 33.4422 -96.3206 237° Southwest 386 444 11,000 -655 Descending Fort Worth Center
Thu 06:30:09 PM 33.3950 -96.4033 236° Southwest 337 388 11,000 -364 Level Fort Worth Center
Thu 06:30:48 PM 33.3500 -96.4500 221° Southwest 303 349 10,400 -1,273 Descending Dallas / Fort Worth TRACON
Thu 06:31:48 PM 33.3000 -96.5333 234° Southwest 297 342 8,900 -1,450 Descending Dallas / Fort Worth TRACON
Thu 06:32:48 PM 33.2833 -96.6167 257° West 292 336 7,500 -1,300 Descending Dallas / Fort Worth TRACON
Thu 06:33:48 PM 33.2500 -96.7000 244° Southwest 280 322 6,300 -1,300 Descending Dallas / Fort Worth TRACON
Thu 06:34:48 PM 33.2167 -96.7833 244° Southwest 277 319 4,900 -634 Descending Dallas / Fort Worth TRACON
Thu 06:36:10 PM 33.1850 -96.9022 252° West 267 307 4,800 -380 Descending Fort Worth Center
Thu 06:37:10 PM 33.1394 -96.9419 216° Southwest 234 269 4,000 -1,041 Descending Fort Worth Center
Thu 06:37:48 PM 33.1000 -96.9667 208° Southwest 224 258 3,100 -673 Descending Dallas / Fort Worth TRACON
Thu 06:38:48 PM 33.0500 -97.0167 220° Southwest 212 244 2,900 -500 Descending Dallas / Fort Worth TRACON
Thu 06:39:48 PM 33.0000 -97.0167 180° South 172 198 2,100 -800 Descending Dallas / Fort Worth TRACON
Thu 06:40:48 PM 32.9500 -97.0167 180° South 156 180 1,300 -800 Descending Dallas / Fort Worth TRACON

Login

Don't have an account? Register now (free) for customized features, flight alerts, and more!